createdAt,value
2023-05-15T00:00:03.980Z,16.44
2023-05-15T00:01:03.975Z,16.32
2023-05-15T00:02:04.010Z,16.40
2023-05-15T00:03:04.057Z,16.35
2023-05-15T00:04:03.972Z,16.35
2023-05-15T00:05:04.007Z,16.38
2023-05-15T00:06:04.005Z,16.38
2023-05-15T00:07:04.062Z,16.42
2023-05-15T00:08:04.063Z,16.42
2023-05-15T00:09:04.109Z,16.44
2023-05-15T00:10:04.134Z,16.44
2023-05-15T00:11:04.225Z,16.34
2023-05-15T00:12:04.116Z,16.27
2023-05-15T00:13:04.131Z,16.34
2023-05-15T00:14:04.113Z,16.25
2023-05-15T00:15:04.152Z,16.27
2023-05-15T00:16:04.211Z,16.31
2023-05-15T00:17:04.158Z,16.35
2023-05-15T00:18:04.243Z,16.35
2023-05-15T00:19:04.248Z,16.36
2023-05-15T00:20:04.192Z,16.38
2023-05-15T00:21:04.182Z,16.41
2023-05-15T00:22:04.205Z,16.40
2023-05-15T00:23:04.197Z,16.34
2023-05-15T00:24:04.245Z,16.32
2023-05-15T00:25:04.261Z,16.20
2023-05-15T00:26:04.324Z,16.27
2023-05-15T00:27:04.332Z,16.27
2023-05-15T00:28:04.351Z,16.32
2023-05-15T00:29:04.363Z,16.31
2023-05-15T00:30:04.370Z,16.21
2023-05-15T00:31:04.791Z,16.27
2023-05-15T00:32:04.405Z,16.29
2023-05-15T00:33:04.402Z,16.31
2023-05-15T00:34:04.433Z,16.32
2023-05-15T00:35:04.412Z,16.35
2023-05-15T00:36:04.762Z,16.38
2023-05-15T00:37:04.460Z,16.36
2023-05-15T00:38:04.483Z,16.35
2023-05-15T00:39:04.491Z,16.32
2023-05-15T00:40:04.533Z,16.35
2023-05-15T00:41:04.535Z,16.34
2023-05-15T00:42:04.555Z,16.35
2023-05-15T00:43:04.498Z,16.36
2023-05-15T00:44:04.502Z,16.35
2023-05-15T00:45:04.544Z,16.36
2023-05-15T00:46:04.533Z,16.36
2023-05-15T00:47:04.524Z,16.36
2023-05-15T00:48:04.569Z,16.36
2023-05-15T00:49:04.491Z,16.36
2023-05-15T00:50:04.510Z,16.38
2023-05-15T00:51:04.497Z,16.40
2023-05-15T00:52:04.514Z,16.41
2023-05-15T00:53:04.481Z,16.42
2023-05-15T00:54:04.552Z,16.41
2023-05-15T00:55:04.530Z,16.40
2023-05-15T00:56:04.768Z,16.40
2023-05-15T00:57:04.552Z,16.31
2023-05-15T00:58:04.548Z,16.38
2023-05-15T00:59:04.552Z,16.38
2023-05-15T01:00:04.590Z,16.40
2023-05-15T01:01:06.284Z,16.38
2023-05-15T01:02:04.574Z,16.42
2023-05-15T01:03:04.656Z,16.44
2023-05-15T01:04:04.560Z,16.44
2023-05-15T01:05:04.528Z,16.44
2023-05-15T01:06:04.743Z,16.48
2023-05-15T01:07:04.502Z,16.47
2023-05-15T01:08:04.510Z,16.41
2023-05-15T01:09:04.552Z,16.48
2023-05-15T01:10:04.486Z,16.47
2023-05-15T01:11:04.497Z,16.48
2023-05-15T01:12:04.489Z,16.48
2023-05-15T01:13:04.468Z,16.41
2023-05-15T01:14:04.493Z,16.42
2023-05-15T01:15:05.294Z,16.47
2023-05-15T01:16:04.455Z,16.48
2023-05-15T01:17:04.474Z,16.45
2023-05-15T01:18:04.554Z,16.32
2023-05-15T01:19:04.520Z,16.35
2023-05-15T01:20:04.513Z,16.31
2023-05-15T01:21:04.421Z,16.32
2023-05-15T01:22:04.440Z,16.36
2023-05-15T01:23:04.416Z,16.36
2023-05-15T01:24:04.433Z,16.34
2023-05-15T01:25:04.418Z,16.38
2023-05-15T01:26:04.426Z,16.40
2023-05-15T01:27:04.372Z,16.40
2023-05-15T01:28:04.382Z,16.42
2023-05-15T01:29:04.408Z,16.40
2023-05-15T01:30:04.392Z,16.41
2023-05-15T01:31:04.388Z,16.42
2023-05-15T01:32:04.407Z,16.42
2023-05-15T01:33:04.354Z,16.42
2023-05-15T01:34:04.343Z,16.38
2023-05-15T01:35:04.348Z,16.38
2023-05-15T01:36:04.340Z,16.38
2023-05-15T01:37:04.360Z,16.41
2023-05-15T01:38:04.307Z,16.35
2023-05-15T01:39:04.348Z,16.29
2023-05-15T01:40:04.284Z,16.35
2023-05-15T01:41:04.292Z,16.35
2023-05-15T01:42:04.291Z,16.35
2023-05-15T01:43:04.287Z,16.38
2023-05-15T01:44:04.278Z,16.40
2023-05-15T01:45:04.353Z,16.41
2023-05-15T01:46:04.292Z,16.36
2023-05-15T01:47:04.262Z,16.34
2023-05-15T01:48:04.311Z,16.32
2023-05-15T01:49:04.252Z,16.35
2023-05-15T01:50:04.242Z,16.34
2023-05-15T01:51:04.228Z,16.35
2023-05-15T01:52:04.211Z,15.94
2023-05-15T01:53:04.199Z,15.92
2023-05-15T01:54:04.226Z,16.00
2023-05-15T01:55:04.217Z,16.04
2023-05-15T01:56:04.229Z,16.07
2023-05-15T01:57:04.189Z,16.14
2023-05-15T01:58:04.197Z,16.18
2023-05-15T01:59:04.192Z,15.98
2023-05-15T02:00:04.232Z,15.96
2023-05-15T02:01:04.153Z,16.01
2023-05-15T02:02:04.172Z,16.07
2023-05-15T02:03:04.197Z,16.08
2023-05-15T02:04:04.195Z,16.13
2023-05-15T02:05:04.144Z,16.17
2023-05-15T02:06:04.142Z,16.20
2023-05-15T02:07:04.104Z,16.21
2023-05-15T02:08:04.099Z,16.23
2023-05-15T02:09:04.069Z,16.20
2023-05-15T02:10:04.119Z,16.25
2023-05-15T02:11:04.169Z,16.24
2023-05-15T02:12:04.082Z,16.27
2023-05-15T02:13:04.075Z,16.28
2023-05-15T02:14:04.041Z,16.32
2023-05-15T02:15:04.070Z,16.28
2023-05-15T02:16:04.067Z,16.21
2023-05-15T02:17:04.071Z,16.24
2023-05-15T02:18:04.141Z,16.27
2023-05-15T02:19:04.066Z,16.31
2023-05-15T02:20:04.018Z,16.23
2023-05-15T02:21:04.288Z,16.00
2023-05-15T02:22:03.997Z,15.94
2023-05-15T02:23:04.011Z,16.03
2023-05-15T02:24:04.024Z,16.08
2023-05-15T02:25:03.963Z,16.16
2023-05-15T02:26:03.963Z,16.18
2023-05-15T02:27:03.958Z,16.23
2023-05-15T02:28:03.960Z,16.23
2023-05-15T02:29:03.973Z,16.25
2023-05-15T02:30:03.998Z,16.29
2023-05-15T02:31:03.955Z,16.31
2023-05-15T02:32:03.992Z,16.32
2023-05-15T02:33:13.939Z,16.35
2023-05-15T02:34:03.935Z,16.31
2023-05-15T02:35:13.894Z,16.16
2023-05-15T02:36:03.929Z,16.11
2023-05-15T02:37:13.932Z,15.80
2023-05-15T02:38:03.900Z,15.92
2023-05-15T02:39:13.927Z,15.98
2023-05-15T02:40:03.869Z,16.03
2023-05-15T02:41:04.363Z,16.07
2023-05-15T02:42:03.940Z,16.07
2023-05-15T02:43:03.879Z,16.11
2023-05-15T02:44:03.879Z,16.13
2023-05-15T02:45:03.911Z,16.18
2023-05-15T02:46:03.850Z,16.18
2023-05-15T02:47:03.807Z,16.18
2023-05-15T02:48:03.854Z,16.23
2023-05-15T02:49:03.865Z,16.11
2023-05-15T02:50:03.816Z,16.14
2023-05-15T02:51:03.852Z,16.17
2023-05-15T02:52:03.813Z,16.16
2023-05-15T02:53:03.796Z,16.17
2023-05-15T02:54:03.815Z,16.18
2023-05-15T02:55:03.812Z,16.21
2023-05-15T02:56:03.821Z,16.20
2023-05-15T02:57:03.770Z,16.23
2023-05-15T02:58:03.866Z,16.23
2023-05-15T02:59:03.726Z,16.24
2023-05-15T03:00:03.759Z,16.25
2023-05-15T03:01:03.763Z,16.24
2023-05-15T03:02:03.775Z,16.25
2023-05-15T03:03:03.707Z,16.27
2023-05-15T03:04:03.762Z,16.28
2023-05-15T03:05:03.700Z,16.27
2023-05-15T03:06:03.840Z,16.20
2023-05-15T03:07:03.684Z,16.18
2023-05-15T03:08:03.725Z,16.23
2023-05-15T03:09:03.648Z,16.20
2023-05-15T03:10:03.665Z,16.23
2023-05-15T03:11:03.674Z,16.14
2023-05-15T03:12:03.650Z,16.13
2023-05-15T03:13:03.672Z,16.16
2023-05-15T03:14:03.652Z,16.16
2023-05-15T03:15:03.645Z,16.14
2023-05-15T03:16:03.641Z,16.14
2023-05-15T03:17:03.694Z,16.16
2023-05-15T03:18:03.605Z,16.18
2023-05-15T03:19:03.720Z,16.17
2023-05-15T03:20:03.619Z,16.21
2023-05-15T03:21:03.700Z,16.16
2023-05-15T03:22:03.581Z,16.14
2023-05-15T03:23:03.583Z,16.18
2023-05-15T03:24:03.598Z,16.20
2023-05-15T03:25:03.563Z,16.14
2023-05-15T03:26:03.570Z,16.17
2023-05-15T03:27:03.565Z,16.13
2023-05-15T03:28:03.561Z,16.17
2023-05-15T03:29:03.550Z,16.17
2023-05-15T03:30:03.547Z,16.21
2023-05-15T03:31:03.540Z,16.17
2023-05-15T03:32:03.558Z,16.20
2023-05-15T03:33:03.561Z,16.21
2023-05-15T03:34:03.510Z,16.20
2023-05-15T03:35:03.492Z,16.20
2023-05-15T03:36:03.524Z,16.20
2023-05-15T03:37:03.473Z,16.21
2023-05-15T03:38:03.496Z,16.20
2023-05-15T03:39:03.491Z,16.23
2023-05-15T03:40:03.494Z,16.23
2023-05-15T03:41:03.500Z,16.17
2023-05-15T03:42:03.546Z,16.18
2023-05-15T03:43:03.519Z,16.14
2023-05-15T03:44:03.576Z,16.11
2023-05-15T03:45:03.552Z,16.14
2023-05-15T03:46:03.612Z,16.13
2023-05-15T03:47:03.779Z,16.14
2023-05-15T03:48:03.633Z,16.14
2023-05-15T03:49:03.604Z,16.18
2023-05-15T03:50:03.609Z,16.20
2023-05-15T03:51:03.676Z,16.18
2023-05-15T03:52:03.687Z,16.17
2023-05-15T03:53:03.660Z,16.16
2023-05-15T03:54:03.688Z,16.14
2023-05-15T03:55:03.693Z,16.14
2023-05-15T03:56:03.732Z,16.17
2023-05-15T03:57:03.709Z,16.17
2023-05-15T03:58:03.763Z,16.18
2023-05-15T03:59:03.769Z,16.14
2023-05-15T04:00:03.781Z,16.13
2023-05-15T04:01:03.812Z,16.14
2023-05-15T04:02:05.403Z,16.10
2023-05-15T04:03:03.911Z,16.03
2023-05-15T04:04:03.863Z,16.06
2023-05-15T04:05:03.894Z,16.00
2023-05-15T04:06:03.917Z,16.03
2023-05-15T04:07:03.939Z,15.94
2023-05-15T04:08:03.934Z,15.97
2023-05-15T04:09:04.000Z,16.00
2023-05-15T04:10:04.019Z,16.04
2023-05-15T04:11:04.000Z,16.06
2023-05-15T04:12:04.065Z,16.06
2023-05-15T04:13:04.088Z,16.10
2023-05-15T04:14:04.097Z,16.08
2023-05-15T04:15:04.157Z,16.08
2023-05-15T04:16:04.314Z,16.11
2023-05-15T04:17:04.361Z,16.16
2023-05-15T04:18:04.222Z,16.14
2023-05-15T04:19:04.261Z,16.14
2023-05-15T04:20:04.222Z,16.18
2023-05-15T04:21:04.253Z,16.17
2023-05-15T04:22:04.290Z,16.18
2023-05-15T04:23:04.282Z,16.21
2023-05-15T04:24:04.308Z,16.14
2023-05-15T04:25:04.329Z,16.16
2023-05-15T04:26:04.323Z,16.17
2023-05-15T04:27:04.347Z,16.14
2023-05-15T04:28:04.353Z,16.14
2023-05-15T04:29:04.978Z,16.17
2023-05-15T04:30:04.388Z,16.20
2023-05-15T04:31:04.419Z,16.20
2023-05-15T04:32:04.486Z,16.18
2023-05-15T04:33:04.548Z,16.20
2023-05-15T04:34:04.514Z,16.18
2023-05-15T04:35:04.493Z,16.21
2023-05-15T04:36:04.526Z,16.23
2023-05-15T04:37:04.618Z,16.20
2023-05-15T04:38:04.564Z,16.21
2023-05-15T04:39:04.568Z,16.21
2023-05-15T04:40:04.618Z,16.23
2023-05-15T04:41:04.634Z,16.21
2023-05-15T04:42:04.666Z,16.16
2023-05-15T04:43:04.709Z,16.17
2023-05-15T04:44:04.747Z,16.13
2023-05-15T04:45:04.761Z,16.08
2023-05-15T04:46:04.768Z,16.06
2023-05-15T04:47:04.866Z,16.00
2023-05-15T04:48:04.854Z,15.83
2023-05-15T04:49:04.833Z,15.93
2023-05-15T04:50:04.869Z,15.96
2023-05-15T04:51:04.931Z,15.98
2023-05-15T04:52:04.945Z,16.01
2023-05-15T04:53:04.958Z,16.04
2023-05-15T04:54:04.982Z,16.06
2023-05-15T04:55:04.971Z,16.08
2023-05-15T04:56:05.016Z,16.10
2023-05-15T04:57:05.035Z,16.14
2023-05-15T04:58:05.054Z,16.16
2023-05-15T04:59:05.094Z,16.21
2023-05-15T05:00:05.108Z,16.21
2023-05-15T05:01:05.173Z,16.17
2023-05-15T05:02:05.147Z,16.17
2023-05-15T05:03:05.187Z,16.14
2023-05-15T05:04:05.230Z,16.18
2023-05-15T05:05:05.145Z,16.18
2023-05-15T05:06:05.213Z,16.18
2023-05-15T05:07:05.232Z,16.20
2023-05-15T05:08:05.254Z,16.18
2023-05-15T05:09:05.270Z,15.92
2023-05-15T05:10:05.274Z,16.00
2023-05-15T05:11:05.304Z,16.03
2023-05-15T05:12:05.356Z,16.06
2023-05-15T05:13:05.370Z,15.93
2023-05-15T05:14:05.364Z,15.98
2023-05-15T05:15:05.424Z,15.45
2023-05-15T05:16:05.425Z,15.62
2023-05-15T05:17:05.438Z,15.63
2023-05-15T05:18:05.481Z,15.76
2023-05-15T05:19:05.581Z,15.79
2023-05-15T05:20:05.539Z,15.86
2023-05-15T05:21:05.567Z,15.92
2023-05-15T05:22:05.854Z,15.96
2023-05-15T05:23:05.651Z,16.03
2023-05-15T05:24:05.657Z,16.04
2023-05-15T05:25:05.653Z,16.04
2023-05-15T05:26:06.207Z,15.97
2023-05-15T05:27:05.698Z,15.78
2023-05-15T05:28:05.748Z,15.89
2023-05-15T05:29:05.761Z,15.85
2023-05-15T05:30:05.786Z,15.87
2023-05-15T05:31:05.869Z,15.94
2023-05-15T05:32:05.868Z,15.98
2023-05-15T05:33:05.941Z,16.00
2023-05-15T05:34:05.912Z,16.03
2023-05-15T05:35:05.884Z,16.07
2023-05-15T05:36:05.959Z,16.11
2023-05-15T05:37:05.976Z,16.14
2023-05-15T05:38:05.997Z,16.17
2023-05-15T05:39:06.052Z,16.18
2023-05-15T05:40:06.069Z,16.03
2023-05-15T05:41:06.082Z,16.07
2023-05-15T05:42:06.206Z,16.11
2023-05-15T05:43:06.126Z,16.13
2023-05-15T05:44:06.128Z,16.14
2023-05-15T05:45:06.150Z,16.17
2023-05-15T05:46:06.163Z,16.18
2023-05-15T05:47:06.253Z,16.21
2023-05-15T05:48:06.265Z,16.10
2023-05-15T05:49:06.252Z,16.16
2023-05-15T05:50:06.284Z,16.18
2023-05-15T05:51:06.326Z,16.18
2023-05-15T05:52:06.350Z,16.18
2023-05-15T05:53:06.475Z,16.23
2023-05-15T05:54:06.419Z,16.21
2023-05-15T05:55:06.434Z,16.24
2023-05-15T05:56:06.482Z,16.27
2023-05-15T05:57:06.457Z,16.21
2023-05-15T05:58:08.679Z,16.24
2023-05-15T05:59:07.500Z,16.21
2023-05-15T06:00:06.436Z,16.25
2023-05-15T06:01:06.462Z,16.25
2023-05-15T06:02:06.455Z,16.25
2023-05-15T06:03:06.547Z,16.27
2023-05-15T06:04:06.595Z,16.27
2023-05-15T06:05:06.433Z,16.25
2023-05-15T06:06:06.692Z,16.25
2023-05-15T06:07:06.596Z,16.25
2023-05-15T06:08:06.619Z,16.23
2023-05-15T06:09:06.406Z,16.23
2023-05-15T06:10:06.412Z,16.25
2023-05-15T06:11:06.366Z,16.28
2023-05-15T06:12:06.331Z,16.27
2023-05-15T06:13:06.349Z,16.27
2023-05-15T06:14:06.347Z,16.29
2023-05-15T06:15:06.327Z,16.28
2023-05-15T06:16:06.354Z,16.28
2023-05-15T06:17:06.354Z,16.29
2023-05-15T06:18:06.424Z,16.28
2023-05-15T06:19:06.444Z,16.28
2023-05-15T06:20:06.423Z,16.29
2023-05-15T06:21:06.485Z,16.25
2023-05-15T06:22:06.955Z,16.28
2023-05-15T06:23:06.506Z,16.25
2023-05-15T06:24:06.530Z,16.27
2023-05-15T06:25:06.554Z,16.28
2023-05-15T06:26:06.552Z,16.28
2023-05-15T06:27:06.596Z,16.27
2023-05-15T06:28:06.630Z,16.29
2023-05-15T06:29:06.651Z,16.29
2023-05-15T06:30:06.682Z,16.28
2023-05-15T06:31:06.685Z,16.31
2023-05-15T06:32:06.920Z,16.31
2023-05-15T06:33:07.010Z,16.31
2023-05-15T06:34:06.748Z,16.35
2023-05-15T06:35:06.775Z,16.32
2023-05-15T06:36:06.754Z,16.28
2023-05-15T06:37:06.790Z,16.29
2023-05-15T06:38:06.822Z,16.29
2023-05-15T06:39:06.824Z,16.31
2023-05-15T06:40:06.831Z,16.17
2023-05-15T06:41:06.825Z,16.16
2023-05-15T06:42:06.847Z,16.20
2023-05-15T06:43:06.840Z,16.24
2023-05-15T06:44:06.834Z,16.25
2023-05-15T06:45:06.852Z,16.29
2023-05-15T06:46:06.912Z,16.31
2023-05-15T06:47:06.982Z,16.34
2023-05-15T06:48:06.939Z,16.34
2023-05-15T06:49:08.016Z,16.41
2023-05-15T06:50:06.935Z,16.41
2023-05-15T06:51:06.931Z,16.44
2023-05-15T06:52:06.957Z,16.48
2023-05-15T06:53:06.922Z,16.54
2023-05-15T06:54:06.929Z,16.54
2023-05-15T06:55:06.938Z,16.58
2023-05-15T06:56:06.921Z,16.59
2023-05-15T06:57:06.922Z,16.63
2023-05-15T06:58:06.912Z,16.65
2023-05-15T06:59:06.902Z,16.65
2023-05-15T07:00:06.905Z,16.61
2023-05-15T07:01:06.937Z,16.66
2023-05-15T07:02:07.016Z,16.51
2023-05-15T07:03:07.051Z,16.51
2023-05-15T07:04:07.844Z,16.51
2023-05-15T07:05:07.295Z,16.50
2023-05-15T07:06:07.217Z,16.58
2023-05-15T07:07:07.299Z,16.62
2023-05-15T07:08:07.336Z,16.68
2023-05-15T07:09:07.427Z,16.68
2023-05-15T07:10:07.486Z,16.70
2023-05-15T07:11:07.500Z,16.73
2023-05-15T07:12:07.623Z,16.76
2023-05-15T07:13:07.655Z,16.79
2023-05-15T07:14:07.680Z,16.83
2023-05-15T07:15:07.747Z,16.82
2023-05-15T07:16:07.787Z,16.86
2023-05-15T07:17:07.985Z,16.90
2023-05-15T07:18:08.031Z,16.90
2023-05-15T07:19:08.017Z,16.90
2023-05-15T07:20:08.015Z,16.96
2023-05-15T07:21:08.104Z,16.94
2023-05-15T07:22:08.172Z,16.99
2023-05-15T07:23:08.242Z,17.00
2023-05-15T07:24:08.455Z,17.02
2023-05-15T07:25:08.422Z,17.05
2023-05-15T07:26:13.991Z,17.03
2023-05-15T07:27:09.358Z,17.00
2023-05-15T07:28:08.356Z,17.05
2023-05-15T07:29:08.636Z,17.03
2023-05-15T07:30:08.377Z,16.84
2023-05-15T07:31:08.333Z,17.00
2023-05-15T07:32:08.361Z,17.05
2023-05-15T07:33:08.357Z,17.11
2023-05-15T07:34:08.298Z,17.17
2023-05-15T07:35:08.292Z,17.18
2023-05-15T07:36:08.326Z,17.23
2023-05-15T07:37:08.631Z,17.11
2023-05-15T07:38:08.397Z,17.16
2023-05-15T07:39:08.316Z,17.20
2023-05-15T07:40:08.264Z,17.27
2023-05-15T07:41:08.254Z,17.33
2023-05-15T07:42:08.254Z,17.35
2023-05-15T07:43:08.261Z,17.44
2023-05-15T07:44:08.250Z,17.41
2023-05-15T07:45:08.273Z,17.52
2023-05-15T07:46:08.266Z,17.61
2023-05-15T07:47:08.417Z,17.66
2023-05-15T07:48:08.232Z,17.72
2023-05-15T07:49:08.196Z,17.72
2023-05-15T07:50:08.211Z,17.79
2023-05-15T07:51:08.215Z,17.82
2023-05-15T07:52:08.417Z,17.85
2023-05-15T07:53:08.214Z,17.86
2023-05-15T07:54:08.269Z,17.89
2023-05-15T07:55:08.308Z,17.97
2023-05-15T07:56:08.417Z,17.69
2023-05-15T07:57:08.461Z,17.79
2023-05-15T07:58:08.475Z,17.82
2023-05-15T07:59:08.576Z,17.83
2023-05-15T08:00:08.570Z,17.82
2023-05-15T08:01:08.610Z,17.56
2023-05-15T08:02:08.680Z,17.58
2023-05-15T08:03:09.013Z,17.70
2023-05-15T08:04:08.757Z,17.78
2023-05-15T08:05:08.841Z,17.82
2023-05-15T08:06:08.887Z,17.89
2023-05-15T08:07:08.931Z,17.96
2023-05-15T08:08:08.937Z,17.69
2023-05-15T08:09:09.084Z,17.75
2023-05-15T08:10:08.987Z,17.79
2023-05-15T08:11:09.019Z,17.73
2023-05-15T08:12:09.506Z,17.56
2023-05-15T08:13:09.097Z,17.73
2023-05-15T08:14:10.577Z,17.66
2023-05-15T08:15:09.158Z,17.64
2023-05-15T08:16:09.202Z,17.41
2023-05-15T08:17:09.104Z,17.28
2023-05-15T08:18:09.544Z,17.30
2023-05-15T08:19:09.205Z,17.42
2023-05-15T08:20:09.096Z,17.53
2023-05-15T08:21:09.066Z,17.69
2023-05-15T08:22:09.110Z,17.73
2023-05-15T08:23:09.109Z,17.82
2023-05-15T08:24:09.054Z,18.00
2023-05-15T08:25:09.067Z,18.16
2023-05-15T08:26:09.058Z,18.37
2023-05-15T08:27:09.036Z,18.44
2023-05-15T08:28:09.451Z,18.41
2023-05-15T08:29:09.015Z,18.66
2023-05-15T08:30:09.067Z,18.65
2023-05-15T08:31:09.028Z,18.70
2023-05-15T08:32:08.988Z,18.68
2023-05-15T08:33:09.564Z,18.65
2023-05-15T08:34:08.976Z,18.63
2023-05-15T08:35:08.973Z,18.68
2023-05-15T08:36:08.998Z,18.72
2023-05-15T08:37:08.976Z,18.65
2023-05-15T08:38:08.941Z,18.82
2023-05-15T08:39:09.036Z,18.83
2023-05-15T08:40:08.953Z,18.62
2023-05-15T08:41:08.918Z,18.55
2023-05-15T08:42:08.962Z,18.50
2023-05-15T08:43:08.926Z,18.48
2023-05-15T08:44:08.957Z,18.45
2023-05-15T08:45:08.949Z,18.41
2023-05-15T08:46:08.909Z,18.44
2023-05-15T08:47:09.000Z,18.40
2023-05-15T08:48:09.008Z,18.40
2023-05-15T08:49:08.986Z,18.08
2023-05-15T08:50:08.886Z,18.16
2023-05-15T08:51:08.866Z,18.14
2023-05-15T08:52:08.898Z,18.08
2023-05-15T08:53:08.825Z,18.14
2023-05-15T08:54:08.877Z,18.11
2023-05-15T08:55:08.845Z,18.11
2023-05-15T08:56:08.811Z,18.16
2023-05-15T08:57:08.838Z,18.18
2023-05-15T08:58:08.802Z,18.16
2023-05-15T08:59:08.813Z,18.17
2023-05-15T09:00:09.003Z,18.10
2023-05-15T09:01:08.780Z,18.16
2023-05-15T09:02:08.860Z,18.20
2023-05-15T09:03:08.934Z,18.23
2023-05-15T09:04:08.990Z,18.25
2023-05-15T09:05:08.776Z,18.28
2023-05-15T09:06:08.755Z,18.14
2023-05-15T09:07:08.750Z,18.25
2023-05-15T09:08:09.018Z,18.25
2023-05-15T09:09:08.728Z,18.25
2023-05-15T09:10:08.708Z,18.23
2023-05-15T09:11:08.721Z,18.18
2023-05-15T09:12:08.727Z,18.23
2023-05-15T09:13:08.732Z,18.23
2023-05-15T09:14:08.749Z,18.14
2023-05-15T09:15:08.697Z,18.17
2023-05-15T09:16:08.745Z,18.08
2023-05-15T09:17:08.748Z,18.08
2023-05-15T09:18:08.740Z,18.00
2023-05-15T09:19:08.693Z,17.94
2023-05-15T09:20:08.726Z,17.92
2023-05-15T09:21:08.652Z,17.62
2023-05-15T09:22:08.683Z,17.61
2023-05-15T09:23:08.631Z,17.65
2023-05-15T09:24:08.627Z,17.59
2023-05-15T09:25:08.670Z,17.66
2023-05-15T09:26:08.674Z,17.69
2023-05-15T09:27:08.735Z,17.69
2023-05-15T09:28:08.980Z,17.72
2023-05-15T09:29:08.852Z,17.85
2023-05-15T09:30:08.912Z,17.87
2023-05-15T09:31:09.007Z,17.87
2023-05-15T09:32:09.160Z,17.82
2023-05-15T09:33:09.186Z,17.89
2023-05-15T09:34:09.228Z,17.85
2023-05-15T09:35:09.227Z,17.85
2023-05-15T09:36:09.300Z,17.78
2023-05-15T09:37:09.338Z,17.72
2023-05-15T09:38:09.425Z,17.76
2023-05-15T09:39:09.477Z,17.75
2023-05-15T09:40:09.583Z,17.79
2023-05-15T09:41:09.595Z,17.69
2023-05-15T09:42:09.716Z,17.79
2023-05-15T09:43:09.987Z,17.78
2023-05-15T09:44:09.812Z,17.82
2023-05-15T09:45:09.873Z,17.75
2023-05-15T09:46:09.989Z,17.87
2023-05-15T09:47:10.034Z,17.94
2023-05-15T09:48:10.134Z,18.04
2023-05-15T09:49:10.120Z,18.11
2023-05-15T09:50:10.151Z,18.11
2023-05-15T09:51:10.217Z,18.17
2023-05-15T09:52:10.220Z,18.11
2023-05-15T09:53:10.252Z,18.06
2023-05-15T09:54:10.358Z,18.14
2023-05-15T09:55:10.380Z,18.18
2023-05-15T09:56:10.473Z,18.25
2023-05-15T09:57:10.487Z,18.31
2023-05-15T09:58:10.984Z,18.28
2023-05-15T09:59:10.677Z,18.33
2023-05-15T10:00:10.686Z,18.41
2023-05-15T10:01:10.727Z,18.35
2023-05-15T10:02:10.776Z,18.42
2023-05-15T10:03:10.871Z,18.48
2023-05-15T10:04:10.916Z,18.51
2023-05-15T10:05:11.034Z,18.54
2023-05-15T10:06:11.095Z,18.50
2023-05-15T10:07:11.103Z,18.48
2023-05-15T10:08:11.168Z,18.33
2023-05-15T10:09:11.277Z,18.48
2023-05-15T10:11:30.834Z,18.52
2023-05-15T10:12:30.796Z,18.65
2023-05-15T10:13:30.776Z,18.61
2023-05-15T10:14:30.748Z,18.47
2023-05-15T10:15:30.796Z,18.24
2023-05-15T10:16:30.844Z,18.13
2023-05-15T10:17:30.777Z,18.28
2023-05-15T10:18:30.749Z,18.34
2023-05-15T10:19:30.741Z,18.33
2023-05-15T10:20:30.733Z,18.37
2023-05-15T10:21:30.696Z,18.34
2023-05-15T10:22:30.857Z,18.40
2023-05-15T10:23:30.720Z,18.62
2023-05-15T10:24:30.723Z,18.66
2023-05-15T10:25:30.696Z,18.59
2023-05-15T10:26:30.732Z,18.38
2023-05-15T10:27:30.693Z,18.52
2023-05-15T10:28:31.003Z,18.62
2023-05-15T10:29:30.709Z,18.78
2023-05-15T10:30:30.665Z,18.86
2023-05-15T10:31:30.684Z,18.95
2023-05-15T10:32:30.685Z,18.89
2023-05-15T10:33:30.743Z,19.02
2023-05-15T10:34:30.797Z,18.92
2023-05-15T10:35:30.837Z,18.83
2023-05-15T10:36:30.918Z,18.65
2023-05-15T10:37:30.955Z,18.56
2023-05-15T10:38:31.032Z,18.56
2023-05-15T10:39:31.089Z,18.50
2023-05-15T10:40:31.145Z,18.47
2023-05-15T10:41:31.165Z,18.47
2023-05-15T10:42:31.176Z,18.59
2023-05-15T10:43:31.195Z,18.59
2023-05-15T10:44:31.217Z,18.62
2023-05-15T10:45:31.170Z,18.61
2023-05-15T10:46:31.291Z,18.72
2023-05-15T10:47:31.316Z,18.80
2023-05-15T10:48:31.239Z,18.85
2023-05-15T10:49:31.255Z,18.90
2023-05-15T10:50:31.214Z,18.89
2023-05-15T10:51:31.218Z,18.97
2023-05-15T10:52:31.224Z,18.92
2023-05-15T10:53:31.477Z,18.95
2023-05-15T10:54:31.240Z,18.89
2023-05-15T10:55:31.256Z,18.93
2023-05-15T10:56:31.288Z,18.90
2023-05-15T10:57:31.365Z,18.82
2023-05-15T10:58:31.538Z,18.80
2023-05-15T10:59:31.310Z,18.88
2023-05-15T11:00:31.303Z,18.92
2023-05-15T11:01:31.502Z,18.99
2023-05-15T11:02:31.382Z,19.03
2023-05-15T11:03:37.907Z,19.03
2023-05-15T11:04:32.407Z,19.03
2023-05-15T11:05:31.296Z,19.09
2023-05-15T11:06:31.286Z,19.06
2023-05-15T11:07:31.258Z,19.10
2023-05-15T11:08:31.484Z,19.16
2023-05-15T11:09:31.271Z,19.21
2023-05-15T11:10:31.270Z,19.24
2023-05-15T11:11:31.245Z,19.27
2023-05-15T11:12:31.224Z,19.33
2023-05-15T11:13:31.460Z,19.35
2023-05-15T11:14:31.181Z,19.37
2023-05-15T11:15:31.238Z,19.41
2023-05-15T11:16:31.226Z,19.13
2023-05-15T11:17:31.275Z,19.14
2023-05-15T11:18:31.472Z,19.17
2023-05-15T11:19:31.163Z,19.13
2023-05-15T11:20:31.176Z,19.16
2023-05-15T11:21:31.154Z,19.10
2023-05-15T11:22:31.150Z,19.07
2023-05-15T11:23:31.164Z,19.10
2023-05-15T11:24:31.125Z,19.10
2023-05-15T11:25:31.150Z,19.13
2023-05-15T11:26:31.141Z,19.17
2023-05-15T11:27:31.153Z,19.18
2023-05-15T11:28:31.737Z,19.23
2023-05-15T11:29:31.161Z,19.21
2023-05-15T11:30:31.129Z,19.25
2023-05-15T11:31:31.185Z,19.28
2023-05-15T11:32:31.224Z,19.31
2023-05-15T11:33:31.544Z,18.97
2023-05-15T11:34:31.198Z,19.09
2023-05-15T11:35:31.189Z,19.06
2023-05-15T11:36:31.224Z,19.14
2023-05-15T11:37:31.196Z,19.16
2023-05-15T11:38:31.188Z,19.18
2023-05-15T11:39:31.215Z,19.21
2023-05-15T11:40:31.254Z,19.20
2023-05-15T11:41:31.172Z,19.24
2023-05-15T11:42:31.211Z,19.21
2023-05-15T11:43:31.188Z,19.18
2023-05-15T11:44:31.185Z,18.86
2023-05-15T11:45:31.226Z,18.65
2023-05-15T11:46:31.269Z,18.66
2023-05-15T11:47:31.212Z,18.70
2023-05-15T11:48:31.601Z,18.76
2023-05-15T11:49:31.199Z,18.79
2023-05-15T11:50:31.215Z,18.80
2023-05-15T11:51:31.230Z,18.65
2023-05-15T11:52:31.238Z,18.62
2023-05-15T11:53:31.241Z,18.52
2023-05-15T11:54:31.230Z,18.59
2023-05-15T11:55:31.194Z,18.44
2023-05-15T11:56:31.247Z,18.45
2023-05-15T11:57:31.205Z,18.48
2023-05-15T11:58:31.324Z,18.52
2023-05-15T11:59:31.203Z,18.47
2023-05-15T12:00:31.229Z,18.00
2023-05-15T12:01:31.296Z,17.94
2023-05-15T12:02:31.314Z,17.97
2023-05-15T12:03:31.334Z,17.73
2023-05-15T12:04:31.350Z,17.78
2023-05-15T12:05:31.325Z,17.83
2023-05-15T12:06:31.336Z,17.78
2023-05-15T12:07:31.319Z,17.85
2023-05-15T12:08:31.382Z,17.93
2023-05-15T12:09:31.387Z,18.06
2023-05-15T12:10:31.408Z,17.94
2023-05-15T12:11:31.428Z,17.90
2023-05-15T12:12:31.553Z,17.93
2023-05-15T12:13:31.495Z,18.06
2023-05-15T12:14:31.510Z,18.23
2023-05-15T12:15:31.524Z,18.41
2023-05-15T12:16:31.530Z,18.58
2023-05-15T12:17:31.613Z,18.69
2023-05-15T12:18:31.574Z,18.72
2023-05-15T12:19:31.580Z,18.51
2023-05-15T12:20:31.547Z,18.62
2023-05-15T12:21:31.556Z,18.76
2023-05-15T12:22:31.567Z,18.80
2023-05-15T12:23:32.025Z,19.11
2023-05-15T12:24:31.643Z,19.34
2023-05-15T12:25:31.682Z,19.52
2023-05-15T12:26:31.770Z,19.52
2023-05-15T12:27:31.781Z,19.52
2023-05-15T12:28:31.781Z,19.54
2023-05-15T12:29:31.828Z,19.51
2023-05-15T12:30:31.947Z,19.57
2023-05-15T12:31:31.937Z,19.55
2023-05-15T12:32:31.901Z,19.55
2023-05-15T12:33:31.971Z,19.66
2023-05-15T12:34:31.936Z,19.69
2023-05-15T12:35:31.976Z,19.82
2023-05-15T12:36:32.012Z,19.89
2023-05-15T12:37:32.029Z,19.92
2023-05-15T12:38:32.045Z,19.97
2023-05-15T12:39:32.522Z,19.86
2023-05-15T12:40:32.106Z,19.83
2023-05-15T12:41:32.174Z,19.75
2023-05-15T12:42:32.203Z,19.83
2023-05-15T12:43:32.249Z,20.01
2023-05-15T12:44:32.224Z,20.12
2023-05-15T12:45:32.240Z,20.28
2023-05-15T12:46:32.383Z,20.37
2023-05-15T12:47:32.344Z,20.40
2023-05-15T12:48:32.592Z,20.41
2023-05-15T12:49:32.523Z,20.38
2023-05-15T12:50:32.496Z,20.41
2023-05-15T12:51:32.578Z,20.52
2023-05-15T12:52:32.599Z,20.59
2023-05-15T12:53:32.612Z,20.59